Time;durP1;ratioP1;P1;durP2;ratioP2;P2;SDS_P1;SDS_P2;PMS_P1;PMS_P2;Temp;Humidity;BMP_temperature;BMP_pressure;BME280_temperature;BME280_humidity;BME280_pressure;Samples;Min_cycle;Max_cycle;Signal;HPM_P1;HPM_P2
2023/01/30 00:01:28;;;;;;;;;40.25;34.75;;;;;6.18;100.00;102472.75;4875911;29;49770;-71
2023/01/30 00:03:54;;;;;;;;;24.25;22.75;;;;;6.64;100.00;102556.63;4875879;29;49859;-70
2023/01/30 00:06:20;;;;;;;;;35.50;31.25;;;;;5.74;100.00;102408.13;4874338;29;51861;-69
2023/01/30 00:08:46;;;;;;;;;37.75;32.00;;;;;5.74;100.00;102444.59;4875477;29;49849;-70
2023/01/30 00:11:13;;;;;;;;;26.00;24.75;;;;;6.60;100.00;102543.38;4875678;29;50200;-70
2023/01/30 00:13:40;;;;;;;;;26.25;25.50;;;;;6.57;100.00;102542.28;4875880;29;49867;-69
2023/01/30 00:16:05;;;;;;;;;34.50;30.50;;;;;4.94;100.00;102255.19;4875431;29;50473;-69
2023/01/30 00:18:31;;;;;;;;;40.75;32.75;;;;;6.22;100.00;102457.41;4875558;29;49847;-69
2023/01/30 00:21:03;;;;;;;;;30.00;28.25;;;;;6.28;100.00;102455.22;4869387;29;50083;-69
2023/01/30 00:23:30;;;;;;;;;35.00;29.50;;;;;6.39;100.00;102462.81;4874231;29;49652;-69
2023/01/30 00:25:56;;;;;;;;;45.50;32.25;;;;;6.36;100.00;102467.81;4873890;29;51724;-70
2023/01/30 00:28:22;;;;;;;;;37.50;28.50;;;;;5.96;100.00;102395.72;4869292;29;49785;-72
2023/01/30 00:30:49;;;;;;;;;29.00;25.75;;;;;5.98;100.00;102420.22;4875534;29;49800;-70
2023/01/30 00:33:15;;;;;;;;;36.25;30.50;;;;;6.06;100.00;102405.03;4875278;29;49994;-69
2023/01/30 00:35:45;;;;;;;;;31.00;30.25;;;;;6.21;100.00;102428.63;4875208;29;50760;-69
2023/01/30 00:38:10;;;;;;;;;34.25;32.50;;;;;6.10;100.00;102400.94;4874425;29;49759;-70
2023/01/30 00:40:36;;;;;;;;;23.25;22.25;;;;;5.03;100.00;102229.75;4874997;29;50574;-69
2023/01/30 00:48:30;;;;;;;;;26.25;24.50;;;;;6.49;100.00;102457.41;4875116;29;49757;-70
2023/01/30 00:50:55;;;;;;;;;33.25;29.75;;;;;6.40;100.00;102430.72;4875349;29;50006;-69
2023/01/30 00:53:21;;;;;;;;;30.50;29.50;;;;;6.34;100.00;102409.44;4875394;29;50025;-70
2023/01/30 00:55:46;;;;;;;;;32.50;28.00;;;;;5.92;100.00;102328.56;4873625;29;52553;-69
2023/01/30 00:58:12;;;;;;;;;33.00;26.25;;;;;6.35;100.00;102406.91;4874958;29;50069;-70
2023/01/30 01:00:38;;;;;;;;;31.75;30.50;;;;;5.99;100.00;102369.88;4875121;29;50058;-70
2023/01/30 01:03:04;;;;;;;;;37.25;27.00;;;;;6.41;100.00;102407.31;4875263;29;49838;-69
2023/01/30 01:05:29;;;;;;;;;30.75;27.00;;;;;6.52;100.00;102421.06;4874884;29;50909;-72
2023/01/30 01:07:55;;;;;;;;;30.75;28.25;;;;;6.07;100.00;102382.47;4874880;29;49767;-71
2023/01/30 01:10:21;;;;;;;;;35.00;30.50;;;;;6.73;100.00;102468.47;4875031;29;49702;-69
2023/01/30 01:12:49;;;;;;;;;27.75;22.75;;;;;6.65;100.00;102433.16;4874979;29;50005;-73
2023/01/30 01:15:14;;;;;;;;;33.25;27.50;;;;;6.27;100.00;102383.00;4874634;29;51298;-70
2023/01/30 01:17:40;;;;;;;;;34.00;28.50;;;;;6.60;100.00;102404.19;4874710;29;49728;-72
2023/01/30 01:20:07;;;;;;;;;31.00;25.50;;;;;6.74;100.00;102438.97;4874934;29;49971;-69
2023/01/30 01:22:32;;;;;;;;;35.25;29.75;;;;;6.48;100.00;102385.16;4873696;29;50244;-70
2023/01/30 01:24:58;;;;;;;;;37.25;31.25;;;;;6.67;100.00;102413.31;4874679;29;50765;-72
2023/01/30 01:27:23;;;;;;;;;33.50;30.00;;;;;6.68;100.00;102416.00;4874682;29;49859;-69
2023/01/30 01:29:49;;;;;;;;;28.25;25.75;;;;;6.60;100.00;102412.91;4874948;29;50148;-69
2023/01/30 01:32:14;;;;;;;;;36.75;30.50;;;;;6.70;100.00;102403.03;4874863;29;49878;-71
2023/01/30 01:34:39;;;;;;;;;24.00;23.50;;;;;6.00;100.00;102288.25;4874127;29;49878;-69
2023/01/30 01:37:05;;;;;;;;;30.00;29.25;;;;;6.66;100.00;102399.34;4873320;29;49609;-70
2023/01/30 01:42:14;;;;;;;;;29.25;24.00;;;;;6.40;100.00;102378.53;4874772;29;49628;-69
2023/01/30 01:45:07;;;;;;;;;25.25;23.75;;;;;6.82;100.00;102428.19;4874441;29;50814;-68
2023/01/30 01:47:34;;;;;;;;;32.50;31.00;;;;;6.22;100.00;102313.06;4874701;29;49645;-69
2023/01/30 01:50:04;;;;;;;;;30.50;27.00;;;;;6.73;100.00;102401.50;4874518;29;49835;-69
2023/01/30 01:52:30;;;;;;;;;27.75;23.50;;;;;5.57;100.00;102197.69;4874453;29;49869;-73
2023/01/30 01:55:01;;;;;;;;;23.25;21.50;;;;;6.26;100.00;102330.69;4874849;29;49863;-69
2023/01/30 01:57:53;;;;;;;;;29.00;25.25;;;;;6.18;100.00;102298.94;4877585;29;50005;-70
2023/01/30 02:00:20;;;;;;;;;32.75;24.25;;;;;6.22;100.00;102295.72;4877671;29;49759;-69
2023/01/30 02:02:54;;;;;;;;;24.75;22.00;;;;;6.69;100.00;102396.94;4877889;29;49997;-71
2023/01/30 02:05:20;;;;;;;;;26.75;25.00;;;;;5.84;100.00;102222.88;4877454;29;49952;-69
2023/01/30 02:07:54;;;;;;;;;25.00;23.50;;;;;6.79;100.00;102394.06;4877542;29;49713;-70
2023/01/30 02:10:24;;;;;;;;;25.00;21.25;;;;;6.62;100.00;102380.78;4877486;29;49877;-73
2023/01/30 02:12:51;;;;;;;;;24.25;22.25;;;;;5.72;100.00;102227.34;4877360;29;49829;-70
2023/01/30 02:15:18;;;;;;;;;26.50;22.00;;;;;6.60;100.00;102383.31;4876710;29;49858;-74
2023/01/30 02:17:44;;;;;;;;;23.25;22.75;;;;;5.96;100.00;102262.78;4875482;29;49753;-69
2023/01/30 02:20:37;;;;;;;;;27.25;23.00;;;;;5.00;100.00;102122.84;4877338;29;49728;-70
2023/01/30 02:23:39;;;;;;;;;26.00;23.75;;;;;6.78;100.00;102407.94;4877465;29;49779;-70
2023/01/30 02:26:41;;;;;;;;;24.75;23.50;;;;;6.76;100.00;102411.28;4877181;29;50996;-69
2023/01/30 02:29:07;;;;;;;;;27.25;26.25;;;;;6.76;100.00;102408.66;4874392;29;49811;-70
2023/01/30 02:31:55;;;;;;;;;26.75;25.00;;;;;6.74;100.00;102411.16;4876843;29;49737;-70
2023/01/30 02:34:51;;;;;;;;;31.75;27.25;;;;;6.71;100.00;102405.75;4869945;29;49958;-70
2023/01/30 02:37:30;;;;;;;;;30.50;24.25;;;;;5.80;100.00;102278.25;4876824;29;51122;-72
2023/01/30 02:40:24;;;;;;;;;26.50;23.25;;;;;6.72;100.00;102402.31;4876814;29;50243;-71
2023/01/30 02:43:14;;;;;;;;;24.75;22.50;;;;;6.71;100.00;102399.63;4877070;29;49825;-69
2023/01/30 02:45:53;;;;;;;;;25.25;23.75;;;;;5.54;100.00;102197.50;4875910;29;50154;-70
2023/01/30 02:48:50;;;;;;;;;22.25;20.50;;;;;6.28;100.00;102379.56;4870459;29;51031;-70
2023/01/30 02:51:27;;;;;;;;;23.00;23.00;;;;;6.73;100.00;102416.28;4872100;29;49686;-72
2023/01/30 02:53:53;;;;;;;;;27.50;23.25;;;;;6.32;100.00;102351.97;4876770;29;49788;-69
2023/01/30 02:56:18;;;;;;;;;32.00;29.75;;;;;6.03;100.00;102297.97;4875425;29;49615;-69
2023/01/30 02:58:59;;;;;;;;;38.50;30.75;;;;;6.28;100.00;102357.81;4876371;29;51144;-69
2023/01/30 03:01:34;;;;;;;;;29.25;24.25;;;;;6.77;100.00;102410.47;4876710;29;50014;-69
2023/01/30 03:04:08;;;;;;;;;35.25;24.50;;;;;6.76;100.00;102412.16;4876660;29;49791;-69
2023/01/30 03:06:58;;;;;;;;;28.75;25.75;;;;;6.74;100.00;102400.72;4875910;29;49782;-69
2023/01/30 03:09:34;;;;;;;;;27.00;25.75;;;;;6.79;100.00;102406.22;4875845;29;50001;-69
2023/01/30 03:12:06;;;;;;;;;30.75;25.25;;;;;6.70;100.00;102392.59;4876495;29;49835;-69
2023/01/30 03:14:43;;;;;;;;;31.25;24.00;;;;;5.40;100.00;102178.38;4876373;29;50012;-69
2023/01/30 03:17:11;;;;;;;;;23.50;23.25;;;;;6.75;100.00;102409.44;4876586;29;49974;-70
2023/01/30 03:19:37;;;;;;;;;25.50;24.00;;;;;6.52;100.00;102389.75;4876181;29;49828;-69
2023/01/30 03:22:02;;;;;;;;;33.25;29.75;;;;;6.29;100.00;102359.59;4876330;29;49786;-69
2023/01/30 03:24:28;;;;;;;;;23.00;20.00;;;;;6.73;100.00;102417.19;4870123;29;49934;-69
2023/01/30 03:26:58;;;;;;;;;27.00;23.50;;;;;6.14;100.00;102304.75;4876446;29;49614;-70
2023/01/30 03:29:23;;;;;;;;;32.00;27.25;;;;;6.54;100.00;102375.97;4876133;29;49929;-69
2023/01/30 03:31:49;;;;;;;;;26.00;25.50;;;;;6.64;100.00;102419.22;4876176;29;49952;-69
2023/01/30 03:34:14;;;;;;;;;36.00;25.50;;;;;6.29;100.00;102343.97;4876183;29;50795;-70
2023/01/30 03:36:39;;;;;;;;;28.75;27.00;;;;;6.49;100.00;102373.91;4876452;29;49790;-69
2023/01/30 03:39:05;;;;;;;;;33.25;27.50;;;;;6.46;100.00;102368.47;4875657;29;50667;-71
2023/01/30 03:41:30;;;;;;;;;32.00;30.00;;;;;6.33;100.00;102351.16;4875969;29;49793;-70
2023/01/30 03:43:55;;;;;;;;;26.50;23.25;;;;;6.72;100.00;102412.75;4875793;29;49936;-71
2023/01/30 03:46:21;;;;;;;;;33.00;28.75;;;;;6.35;100.00;102326.06;4876174;29;49855;-69
2023/01/30 03:48:46;;;;;;;;;28.25;25.50;;;;;6.30;100.00;102317.97;4875762;29;50411;-70
2023/01/30 03:51:11;;;;;;;;;25.00;21.75;;;;;6.31;100.00;102313.66;4875775;29;51166;-69
2023/01/30 03:53:37;;;;;;;;;26.50;23.75;;;;;5.84;100.00;102235.00;4875936;29;50164;-69
2023/01/30 03:56:02;;;;;;;;;26.50;24.25;;;;;6.54;100.00;102381.19;4876274;29;49738;-69
2023/01/30 03:58:28;;;;;;;;;34.25;28.50;;;;;6.64;100.00;102387.88;4875428;29;49720;-70
2023/01/30 04:00:55;;;;;;;;;27.00;23.75;;;;;6.47;100.00;102371.19;4875777;29;49821;-70
2023/01/30 04:03:20;;;;;;;;;28.50;27.25;;;;;6.55;100.00;102358.63;4875470;29;49716;-69
2023/01/30 04:05:46;;;;;;;;;27.25;26.00;;;;;5.43;100.00;102202.91;4876055;29;49694;-70
2023/01/30 04:08:11;;;;;;;;;24.25;22.75;;;;;6.40;100.00;102352.44;4875511;29;52561;-69
2023/01/30 04:10:36;;;;;;;;;28.50;27.00;;;;;6.31;100.00;102329.31;4875642;29;49785;-68
2023/01/30 04:13:02;;;;;;;;;34.00;31.25;;;;;6.55;100.00;102351.69;4874535;29;49993;-68
2023/01/30 04:15:27;;;;;;;;;30.75;28.50;;;;;6.43;100.00;102318.72;4875827;29;49871;-69
2023/01/30 04:17:52;;;;;;;;;25.75;22.75;;;;;6.40;100.00;102353.34;4875126;29;50826;-69
2023/01/30 04:20:19;;;;;;;;;25.25;24.25;;;;;5.50;100.00;102151.19;4875653;29;49705;-68
2023/01/30 04:22:44;;;;;;;;;37.50;26.00;;;;;6.65;100.00;102328.78;4875390;29;49637;-69
2023/01/30 04:25:10;;;;;;;;;31.25;27.25;;;;;6.71;100.00;102345.72;4875829;29;50263;-69
2023/01/30 04:27:35;;;;;;;;;23.25;20.50;;;;;6.48;100.00;102306.88;4875290;29;50884;-69
2023/01/30 04:30:00;;;;;;;;;23.00;22.75;;;;;6.78;100.00;102355.72;4875371;29;49780;-69
2023/01/30 04:32:26;;;;;;;;;26.00;26.00;;;;;6.61;100.00;102327.69;4875274;29;49809;-72
2023/01/30 04:34:51;;;;;;;;;24.50;23.25;;;;;6.37;100.00;102314.03;4875517;29;49943;-68
2023/01/30 04:37:16;;;;;;;;;34.00;31.00;;;;;6.64;100.00;102346.13;4873768;29;50553;-69
2023/01/30 04:39:42;;;;;;;;;25.25;23.50;;;;;5.69;100.00;102175.00;4875094;29;49830;-72
2023/01/30 04:42:07;;;;;;;;;28.00;25.25;;;;;6.44;100.00;102302.25;4875293;29;49892;-68
2023/01/30 04:44:32;;;;;;;;;27.50;20.00;;;;;5.55;100.00;102207.09;4875485;29;49832;-70
2023/01/30 04:46:58;;;;;;;;;26.75;26.75;;;;;6.66;100.00;102336.72;4875102;29;51016;-69
2023/01/30 04:49:26;;;;;;;;;30.25;27.75;;;;;5.70;100.00;102153.38;4875059;29;49792;-68
2023/01/30 04:51:51;;;;;;;;;27.25;24.75;;;;;6.42;100.00;102272.56;4875165;29;49711;-68
2023/01/30 04:54:17;;;;;;;;;23.75;23.25;;;;;6.29;100.00;102271.84;4875098;29;49769;-69
2023/01/30 04:56:42;;;;;;;;;26.50;22.25;;;;;6.48;100.00;102299.06;4874819;29;49880;-69
2023/01/30 04:59:08;;;;;;;;;29.50;24.25;;;;;6.56;100.00;102298.72;4875138;29;49606;-69
2023/01/30 05:01:36;;;;;;;;;36.00;24.00;;;;;6.15;100.00;102227.44;4872710;29;50092;-73
2023/01/30 05:04:02;;;;;;;;;27.50;24.00;;;;;6.94;100.00;102361.88;4874019;29;49843;-74
2023/01/30 05:06:28;;;;;;;;;23.00;20.50;;;;;6.84;100.00;102339.53;4873851;29;50668;-74
2023/01/30 05:08:57;;;;;;;;;28.25;26.50;;;;;6.95;100.00;102353.22;4877780;29;49803;-71
2023/01/30 05:11:31;;;;;;;;;26.25;22.75;;;;;6.72;100.00;102323.13;4872705;29;49871;-74
2023/01/30 05:13:59;;;;;;;;;17.75;16.00;;;;;6.96;100.00;102355.06;4880974;29;49778;-73
2023/01/30 05:16:29;;;;;;;;;22.50;22.50;;;;;6.73;100.00;102317.09;4874954;29;51837;-73
2023/01/30 05:18:54;;;;;;;;;28.00;24.75;;;;;6.89;100.00;102359.00;4868483;29;50099;-74
2023/01/30 05:21:22;;;;;;;;;21.50;19.75;;;;;6.66;100.00;102321.06;4874243;29;49840;-72
2023/01/30 05:23:48;;;;;;;;;22.50;21.75;;;;;6.49;100.00;102282.59;4868653;29;49741;-70
2023/01/30 05:26:14;;;;;;;;;27.00;24.00;;;;;6.58;100.00;102286.66;4888964;29;51727;-69
2023/01/30 05:28:41;;;;;;;;;23.75;23.00;;;;;6.99;100.00;102348.31;4874581;29;49818;-69
2023/01/30 05:31:09;;;;;;;;;23.25;21.25;;;;;6.46;100.00;102267.63;4876813;29;49879;-69
2023/01/30 05:33:34;;;;;;;;;23.25;20.25;;;;;6.46;100.00;102257.19;4878095;29;50045;-69
2023/01/30 05:36:00;;;;;;;;;26.25;20.50;;;;;7.01;100.00;102349.28;4877711;29;51406;-64
2023/01/30 05:38:27;;;;;;;;;23.50;22.75;;;;;6.27;100.00;102252.59;4877569;29;49820;-68
2023/01/30 05:41:04;;;;;;;;;20.50;19.00;;;;;6.82;100.00;102317.66;4877820;29;49716;-69
2023/01/30 05:43:30;;;;;;;;;22.50;21.75;;;;;7.00;100.00;102371.00;4877836;29;50007;-74
2023/01/30 05:45:57;;;;;;;;;28.50;26.50;;;;;5.33;100.00;102080.75;4877543;29;50244;-67
2023/01/30 05:48:24;;;;;;;;;23.00;22.75;;;;;6.99;100.00;102329.13;4877646;29;49654;-76
2023/01/30 06:19:16;;;;;;;;;21.75;20.25;;;;;7.00;100.00;102344.88;5561097;23;49893;-78
2023/01/30 06:21:41;;;;;;;;;24.00;19.00;;;;;4.95;100.00;101986.34;4896425;28;50070;-78
2023/01/30 06:24:07;;;;;;;;;24.00;23.25;;;;;5.83;100.00;102173.28;4896329;28;49808;-78
2023/01/30 06:26:32;;;;;;;;;23.25;21.25;;;;;5.61;100.00;102091.19;4894538;28;50045;-78
2023/01/30 06:28:57;;;;;;;;;25.75;21.75;;;;;6.07;100.00;102208.69;4893431;28;49731;-76
2023/01/30 06:31:23;;;;;;;;;20.00;20.00;;;;;6.22;100.00;102185.28;4896046;28;49985;-70
2023/01/30 06:33:48;;;;;;;;;13.75;7.00;;;;;5.65;100.00;102141.75;4900645;28;49887;-75
2023/01/30 06:36:14;;;;;;;;;22.50;20.25;;;;;6.53;100.00;102253.25;4913402;28;51583;-74
2023/01/30 06:38:39;;;;;;;;;23.00;20.50;;;;;5.22;100.00;102054.84;4895405;28;49846;-78
2023/01/30 06:41:05;;;;;;;;;17.50;16.50;;;;;5.62;100.00;102100.78;4904810;28;49903;-79
2023/01/30 06:43:31;;;;;;;;;24.75;19.75;;;;;7.12;100.00;102386.50;4907602;28;50055;-81
2023/01/30 06:45:58;;;;;;;;;22.75;22.75;;;;;6.29;100.00;102229.19;4907503;28;52637;-75
2023/01/30 06:48:23;;;;;;;;;22.00;21.00;;;;;6.38;100.00;102258.47;4914166;28;49802;-71
2023/01/30 06:50:49;;;;;;;;;20.75;20.75;;;;;6.38;100.00;102215.81;4914764;28;49695;-75
2023/01/30 06:53:14;;;;;;;;;19.00;19.00;;;;;6.99;100.00;102344.78;4907259;28;49651;-72
2023/01/30 06:55:39;;;;;;;;;18.00;16.75;;;;;7.23;100.00;102358.41;4896418;28;50763;-75
2023/01/30 06:58:10;;;;;;;;;10.50;8.75;;;;;5.49;100.00;102110.34;4896770;28;49872;-77
2023/01/30 07:00:39;;;;;;;;;21.00;15.25;;;;;6.55;100.00;102256.84;4911052;28;49819;-72
2023/01/30 07:03:05;;;;;;;;;18.75;18.75;;;;;6.34;100.00;102219.94;4915029;28;49969;-77
2023/01/30 07:05:30;;;;;;;;;24.25;21.00;;;;;6.75;100.00;102300.72;4909398;28;49862;-86
2023/01/30 07:07:58;;;;;;;;;19.25;16.25;;;;;5.68;100.00;102135.03;4901681;28;49853;-76
2023/01/30 07:10:25;;;;;;;;;18.75;17.00;;;;;7.03;100.00;102354.59;4896373;28;49970;-83
2023/01/30 07:12:50;;;;;;;;;20.75;20.75;;;;;6.60;100.00;102272.00;4896717;28;49751;-68
2023/01/30 07:15:16;;;;;;;;;22.75;20.25;;;;;6.93;100.00;102333.97;4896571;28;49935;-78
2023/01/30 07:17:41;;;;;;;;;20.25;17.75;;;;;5.98;100.00;102167.34;4896142;28;50044;-75
2023/01/30 07:20:08;;;;;;;;;25.50;19.75;;;;;7.15;100.00;102353.66;4914440;28;49884;-81
2023/01/30 07:22:34;;;;;;;;;19.75;17.25;;;;;7.30;100.00;102424.19;4889768;28;49735;-73
2023/01/30 07:24:59;;;;;;;;;18.75;17.25;;;;;7.25;100.00;102388.16;4895914;28;49751;-71
2023/01/30 07:27:25;;;;;;;;;15.50;15.00;;;;;7.24;100.00;102409.84;4896137;28;49640;-74
2023/01/30 07:29:50;;;;;;;;;22.25;17.00;;;;;7.18;100.00;102394.72;4901276;28;49754;-69
2023/01/30 07:32:18;;;;;;;;;21.75;20.50;;;;;7.16;100.00;102388.50;4914158;28;49782;-70
2023/01/30 07:34:44;;;;;;;;;23.50;19.25;;;;;7.17;100.00;102396.44;4914058;28;50984;-73
2023/01/30 07:37:10;;;;;;;;;11.75;10.00;;;;;7.09;100.00;102381.09;4914311;28;49870;-68
2023/01/30 07:39:35;;;;;;;;;23.75;19.75;;;;;6.71;100.00;102309.19;4904098;28;49903;-70
2023/01/30 07:42:01;;;;;;;;;24.50;22.25;;;;;6.84;100.00;102379.59;4895885;28;49705;-70
2023/01/30 07:44:26;;;;;;;;;21.75;20.00;;;;;5.96;100.00;102183.69;4895459;28;49753;-71
2023/01/30 07:46:52;;;;;;;;;27.00;23.50;;;;;5.99;100.00;102170.88;4895814;28;49961;-70
2023/01/30 07:49:17;;;;;;;;;28.00;23.75;;;;;6.65;100.00;102313.13;4896019;28;50077;-80
2023/01/30 07:51:43;;;;;;;;;17.50;16.75;;;;;7.02;100.00;102340.66;4898849;28;49791;-70
2023/01/30 07:54:08;;;;;;;;;25.75;25.50;;;;;7.23;100.00;102408.03;4913557;28;49947;-74
2023/01/30 07:56:34;;;;;;;;;24.00;20.00;;;;;7.24;100.00;102392.47;4912206;28;49920;-78
2023/01/30 07:58:59;;;;;;;;;25.00;24.00;;;;;7.05;100.00;102384.34;4897474;28;50018;-73
2023/01/30 08:01:25;;;;;;;;;20.50;19.50;;;;;5.97;100.00;102211.53;4913101;28;49919;-70
2023/01/30 08:03:50;;;;;;;;;24.50;24.00;;;;;6.39;100.00;102267.19;4900487;28;50246;-75
2023/01/30 08:06:16;;;;;;;;;27.75;23.50;;;;;7.41;100.00;102430.94;4895980;28;49808;-70
2023/01/30 08:08:41;;;;;;;;;20.25;19.00;;;;;6.56;100.00;102256.03;4901384;28;49986;-70
2023/01/30 08:11:07;;;;;;;;;28.25;21.75;;;;;5.76;100.00;102161.56;4901253;28;49849;-71
2023/01/30 08:13:33;;;;;;;;;21.25;21.00;;;;;6.92;100.00;102312.19;4907071;28;49721;-70
2023/01/30 08:15:59;;;;;;;;;32.50;22.75;;;;;6.74;100.00;102304.13;4901704;28;49766;-72
2023/01/30 08:18:24;;;;;;;;;21.75;17.25;;;;;6.21;100.00;102193.94;4895248;28;50065;-71
2023/01/30 08:20:50;;;;;;;;;26.75;20.25;;;;;7.35;100.00;102387.91;4895311;28;50049;-70
2023/01/30 08:23:15;;;;;;;;;28.75;22.75;;;;;7.10;100.00;102341.13;4895209;28;50924;-82
2023/01/30 08:25:40;;;;;;;;;30.75;21.75;;;;;6.28;100.00;102198.72;4910905;28;49735;-71
2023/01/30 08:28:06;;;;;;;;;22.00;20.00;;;;;6.79;100.00;102296.59;4913714;28;49825;-70
2023/01/30 08:30:32;;;;;;;;;23.50;21.75;;;;;6.54;100.00;102287.25;4913999;28;50051;-75
2023/01/30 08:32:58;;;;;;;;;20.25;17.75;;;;;5.04;100.00;102011.22;4901702;28;50738;-77
2023/01/30 08:35:23;;;;;;;;;23.00;20.75;;;;;7.10;100.00;102365.50;4905642;28;49919;-83
2023/01/30 08:37:48;;;;;;;;;25.25;23.50;;;;;7.00;100.00;102349.19;4902100;28;50359;-78
2023/01/30 08:40:14;;;;;;;;;26.75;20.75;;;;;6.36;100.00;102251.31;4898667;28;50005;-83
2023/01/30 08:42:42;;;;;;;;;25.00;23.00;;;;;7.68;100.00;102480.47;4900040;28;49709;-80
2023/01/30 08:45:08;;;;;;;;;23.75;20.50;;;;;6.42;100.00;102242.19;4909514;28;49921;-84
2023/01/30 08:47:34;;;;;;;;;21.75;19.25;;;;;7.36;100.00;102372.31;4892279;28;50004;-70
2023/01/30 08:50:00;;;;;;;;;24.75;20.25;;;;;7.11;100.00;102324.63;4894916;28;49918;-71
2023/01/30 08:52:25;;;;;;;;;28.75;27.00;;;;;6.85;100.00;102270.84;4895819;28;50492;-72
2023/01/30 08:54:50;;;;;;;;;21.50;19.75;;;;;7.38;100.00;102364.56;4913140;28;49957;-71
2023/01/30 08:57:16;;;;;;;;;20.00;17.50;;;;;7.52;100.00;102391.47;4913423;28;49786;-70
2023/01/30 08:59:41;;;;;;;;;17.50;16.50;;;;;6.62;100.00;102250.31;4913168;28;50175;-69
2023/01/30 09:02:11;;;;;;;;;24.25;19.75;;;;;7.05;100.00;102309.53;4912247;28;51000;-70
2023/01/30 09:04:37;;;;;;;;;19.50;18.75;;;;;7.85;100.00;102465.78;4911794;28;49676;-70
2023/01/30 09:07:02;;;;;;;;;21.50;20.75;;;;;7.08;100.00;102312.31;4912799;28;49786;-70
2023/01/30 09:09:28;;;;;;;;;21.50;18.50;;;;;7.87;100.00;102441.50;4912060;28;49970;-70
2023/01/30 09:11:53;;;;;;;;;24.00;22.00;;;;;7.22;100.00;102340.94;4912476;28;49605;-70
2023/01/30 09:14:19;;;;;;;;;23.25;20.00;;;;;6.94;100.00;102341.88;4912697;28;49881;-70
2023/01/30 09:16:54;;;;;;;;;20.00;19.00;;;;;7.40;100.00;102365.53;4912250;28;49711;-70
2023/01/30 09:19:26;;;;;;;;;25.00;23.00;;;;;6.86;100.00;102293.56;4911681;28;49958;-70
2023/01/30 09:21:53;;;;;;;;;21.25;20.00;;;;;7.55;100.00;102360.31;4888535;28;50591;-70
2023/01/30 09:24:18;;;;;;;;;20.00;17.75;;;;;7.97;100.00;102464.78;4894347;28;50117;-70
2023/01/30 09:26:44;;;;;;;;;24.75;19.75;;;;;7.25;100.00;102315.03;4894411;28;49706;-71
2023/01/30 09:29:13;;;;;;;;;19.75;17.75;;;;;7.49;100.00;102349.50;4894395;28;49950;-71
2023/01/30 09:31:39;;;;;;;;;20.75;19.50;;;;;8.11;100.00;102456.84;4893976;28;50919;-74
2023/01/30 09:34:04;;;;;;;;;23.25;21.75;;;;;7.22;100.00;102313.09;4887500;28;49692;-70
2023/01/30 09:36:30;;;;;;;;;21.00;18.00;;;;;6.87;100.00;102277.09;4894176;28;49655;-70
2023/01/30 09:38:55;;;;;;;;;31.25;22.00;;;;;6.83;100.00;102257.72;4891452;28;49824;-73
2023/01/30 09:41:58;;;;;;;;;24.75;21.50;;;;;8.10;100.00;102442.84;4893780;28;53502;-71
2023/01/30 09:44:31;;;;;;;;;25.75;23.00;;;;;8.21;100.00;102448.72;4893923;28;50039;-70
2023/01/30 09:47:13;;;;;;;;;17.00;16.75;;;;;8.23;100.00;102442.75;4893728;28;49804;-70
2023/01/30 09:49:51;;;;;;;;;18.25;17.50;;;;;8.27;100.00;102449.03;4894094;28;49710;-70
2023/01/30 09:52:59;;;;;;;;;22.50;21.75;;;;;7.89;100.00;102377.13;4900770;28;51038;-70
2023/01/30 09:55:32;;;;;;;;;27.00;20.50;;;;;7.89;100.00;102371.00;4895035;28;49854;-69
2023/01/30 09:57:58;;;;;;;;;25.50;20.25;;;;;6.60;100.00;102200.66;4888107;28;49711;-75
2023/01/30 10:00:34;;;;;;;;;27.50;23.00;;;;;7.83;100.00;102375.91;4906422;28;50047;-70
2023/01/30 10:03:15;;;;;;;;;20.50;18.50;;;;;7.63;100.00;102333.81;4888346;28;49887;-68
2023/01/30 10:05:51;;;;;;;;;27.00;24.00;;;;;8.40;100.00;102463.78;4893896;28;49665;-68
2023/01/30 10:08:37;;;;;;;;;21.50;19.00;;;;;7.05;100.00;102236.41;4890405;28;50075;-69
2023/01/30 10:11:26;;;;;;;;;23.25;22.00;;;;;8.49;100.00;102473.06;4899532;28;49954;-69
2023/01/30 10:14:10;;;;;;;;;22.75;20.25;;;;;8.61;100.00;102480.69;4892646;28;51017;-78
2023/01/30 10:17:17;;;;;;;;;24.75;24.75;;;;;8.47;100.00;102439.72;4897534;28;49617;-65
2023/01/30 10:20:07;;;;;;;;;25.50;23.00;;;;;8.80;100.00;102475.66;4895465;28;50390;-62
2023/01/30 10:22:50;;;;;;;;;23.50;20.75;;;;;8.89;100.00;102477.88;4896795;28;50046;-65
2023/01/30 10:25:32;;;;;;;;;18.75;17.00;;;;;8.93;100.00;102485.06;4897132;28;49806;-65
2023/01/30 10:28:24;;;;;;;;;17.00;17.00;;;;;9.03;100.00;102481.25;4896985;28;49902;-63
2023/01/30 10:30:54;;;;;;;;;20.25;17.25;;;;;9.14;100.00;102464.38;4898779;28;49781;-64
2023/01/30 10:33:46;;;;;;;;;21.25;19.00;;;;;8.91;100.00;102415.09;4901409;28;49719;-64
2023/01/30 10:36:17;;;;;;;;;27.50;22.25;;;;;9.04;100.00;102426.31;4901742;28;50782;-65
2023/01/30 10:38:48;;;;;;;;;22.50;19.25;;;;;9.24;100.00;102444.81;4912214;28;49643;-64
2023/01/30 10:41:23;;;;;;;;;15.25;14.50;;;;;9.37;100.00;102452.50;4916298;28;49790;-66
2023/01/30 10:44:00;;;;;;;;;22.50;22.00;;;;;9.33;100.00;102430.47;4922065;28;49970;-65
2023/01/30 10:46:47;;;;;;;;;17.50;17.50;;;;;9.47;100.00;102446.94;4917991;28;50062;-64
2023/01/30 10:49:35;;;;;;;;;16.50;13.00;;;;;9.28;100.00;102402.22;4915540;28;49713;-65
2023/01/30 10:52:38;;;;;;;;;19.50;17.75;;;;;9.79;100.00;102450.28;4916676;28;50047;-67
2023/01/30 10:55:15;;;;;;;;;20.25;18.50;;;;;9.91;100.00;102451.81;4917495;28;49777;-67
2023/01/30 10:58:14;;;;;;;;;21.00;17.50;;;;;10.01;100.00;102442.66;4915873;28;50984;-70
2023/01/30 11:01:00;;;;;;;;;14.50;14.25;;;;;10.14;100.00;102445.09;4913805;28;49756;-68
2023/01/30 11:03:31;;;;;;;;;17.25;14.50;;;;;10.19;100.00;102451.44;4915123;28;49857;-67
2023/01/30 11:06:01;;;;;;;;;14.00;12.75;;;;;10.19;100.00;102451.44;4906109;28;50084;-65
2023/01/30 11:08:34;;;;;;;;;20.50;17.00;;;;;10.07;100.00;102424.63;4905693;28;51073;-65
2023/01/30 11:11:18;;;;;;;;;16.25;9.00;;;;;9.75;100.00;102384.59;4906875;28;49976;-65
2023/01/30 11:13:44;;;;;;;;;13.25;13.25;;;;;10.18;100.00;102446.13;4898398;28;49764;-64
2023/01/30 11:16:10;;;;;;;;;12.00;10.50;;;;;9.92;100.00;102395.00;4896342;28;49649;-66
2023/01/30 11:18:47;;;;;;;;;12.00;12.00;;;;;10.15;100.00;102439.03;4895631;28;49735;-65
2023/01/30 11:21:19;;;;;;;;;15.50;12.00;;;;;10.08;100.00;102430.75;4897975;28;49782;-66
2023/01/30 11:23:45;;;;;;;;;8.50;8.00;;;;;9.98;100.00;102406.69;4896909;28;49697;-65
2023/01/30 11:26:23;;;;;;;;;10.75;8.00;;;;;9.82;100.00;102391.00;4897281;28;50068;-66
2023/01/30 11:28:49;;;;;;;;;10.00;8.50;;;;;9.97;100.00;102404.00;4896068;28;49764;-65
2023/01/30 11:31:38;;;;;;;;;9.50;7.00;;;;;10.07;100.00;102411.50;4900243;28;49693;-63
2023/01/30 11:34:11;;;;;;;;;7.75;6.75;;;;;9.51;100.00;102314.28;4900707;28;49914;-67
2023/01/30 11:36:37;;;;;;;;;7.75;7.75;;;;;9.15;100.00;102267.94;4903792;28;49936;-63
2023/01/30 11:39:22;;;;;;;;;8.75;8.75;;;;;10.17;100.00;102439.09;4910395;28;51319;-64
2023/01/30 11:41:54;;;;;;;;;7.75;7.50;;;;;10.12;100.00;102420.47;4898480;28;49938;-65
2023/01/30 11:44:27;;;;;;;;;8.50;6.75;;;;;9.75;100.00;102355.72;4898771;28;49780;-66
2023/01/30 11:46:52;;;;;;;;;11.50;8.25;;;;;9.73;100.00;102344.25;4895152;28;49760;-68
2023/01/30 11:49:21;;;;;;;;;9.00;7.75;;;;;9.78;100.00;102343.59;4911921;28;49573;-66
2023/01/30 11:51:51;;;;;;;;;7.75;7.00;;;;;9.70;100.00;102346.72;4918549;28;49428;-70
2023/01/30 11:54:39;;;;;;;;;7.75;6.75;;;;;9.90;100.00;102392.28;4909370;28;49827;-73
2023/01/30 11:57:12;;;;;;;;;8.50;7.50;;;;;9.05;100.00;102236.88;4901984;28;49780;-68
2023/01/30 11:59:59;;;;;;;;;7.25;7.25;;;;;10.11;100.00;102416.06;4900142;28;51000;-70